Stations météo

Publicité
Chamonix, France (7469): Température de l'air & dewpoint: 14.06.2018 09:00:00 - 20.06.2018 09:00:00 (CEST)Chamonix, France (7469): Vitesse du vent & gusts: 14.06.2018 09:00:00 - 20.06.2018 09:00:00 (CEST)Chamonix, France (7469): Direction du vent: 14.06.2018 09:00:00 - 20.06.2018 09:00:00 (CEST)Chamonix, France (7469): Quantités de précipitations: 14.06.2018 09:00:00 - 20.06.2018 09:00:00 (CEST)
Date & Time tt [°C] td [°C] ff [km/h] ff [knt] fx [km/h] fx [knt] dd rr [mm]
20.06.2018 09:00:00 - - - - - - - -
20.06.2018 08:00:00 10,1 9,9 0 0 4 2 N -
20.06.2018 07:00:00 9,6 9,3 0 0 4 2 N 0,2
20.06.2018 06:00:00 9,6 9,3 0 0 4 2 N 0,0
20.06.2018 05:00:00 10,1 9,6 0 0 8 4 N 0,0
20.06.2018 04:00:00 10,7 10,1 0 0 5 3 N 0,0
20.06.2018 03:00:00 11,5 10,9 0 0 5 3 N 0,0
20.06.2018 02:00:00 12,2 11,4 2 1 4 2 E -
20.06.2018 01:00:00 13,2 12,1 0 0 4 2 N 0,0
20.06.2018 00:00:00 14,3 12,5 0 0 4 2 N 0,0
19.06.2018 23:00:00 16,2 13,1 0 0 4 2 N 0,0
19.06.2018 22:00:00 18,6 13,5 0 0 9 5 N 0,0
19.06.2018 21:00:00 21,9 13,5 4 2 16 9 S 0,0
19.06.2018 20:00:00 23,3 13,8 5 3 15 8 SW -
19.06.2018 19:00:00 24,4 13,3 5 3 21 11 SSW 0,0
19.06.2018 18:00:00 27,7 13,3 5 3 22 12 SW 0,0
19.06.2018 17:00:00 27,9 13,1 8 4 22 12 WSW 0,0
19.06.2018 16:00:00 27,1 12,3 5 3 22 12 SSW 0,0
19.06.2018 15:00:00 26,3 12,4 8 4 18 10 SSW 0,0
19.06.2018 14:00:00 24,9 11,1 8 4 22 12 SSW -
19.06.2018 13:00:00 23,3 12,0 8 4 21 11 SW 0,0
19.06.2018 12:00:00 22,4 11,5 9 5 22 12 SW 0,0
19.06.2018 11:00:00 21,4 12,0 4 2 9 5 S 0,0
19.06.2018 10:00:00 17,4 11,4 0 0 8 4 N 0,0
19.06.2018 09:00:00 12,6 10,5 0 0 5 3 N 0,0
19.06.2018 08:00:00 9,3 9,2 2 1 9 5 E -
19.06.2018 07:00:00 8,9 8,8 2 1 8 4 NE 0,0
19.06.2018 06:00:00 8,3 7,9 0 0 5 3 N 0,0
19.06.2018 05:00:00 8,8 8,3 4 2 5 3 NE 0,0
19.06.2018 04:00:00 9,3 8,7 0 0 4 2 N 0,0
19.06.2018 03:00:00 9,9 9,1 0 0 5 3 N 0,0
19.06.2018 02:00:00 10,7 9,8 0 0 4 2 N -
19.06.2018 01:00:00 - - - - - - - -
19.06.2018 00:00:00 13,0 10,4 0 0 4 2 N 0,0
18.06.2018 23:00:00 14,9 10,9 0 0 8 4 N 0,0
18.06.2018 22:00:00 16,7 11,0 0 0 8 4 N 0,0
18.06.2018 21:00:00 18,2 10,6 2 1 16 9 SW 0,0
18.06.2018 20:00:00 20,1 10,2 4 2 22 12 SSW -
18.06.2018 19:00:00 21,5 10,6 5 3 24 13 SSW 0,0
18.06.2018 18:00:00 24,6 11,2 8 4 22 12 SSW 0,0
18.06.2018 17:00:00 24,9 11,8 9 5 26 14 S 0,0
18.06.2018 16:00:00 24,4 12,4 8 4 28 15 SW 0,0
18.06.2018 15:00:00 24,2 11,8 8 4 22 12 SSW 0,0
18.06.2018 14:00:00 22,9 10,3 9 5 22 12 SW -
18.06.2018 13:00:00 22,1 9,3 8 4 22 12 SW 0,0
18.06.2018 12:00:00 21,0 10,2 8 4 21 11 WSW 0,0
18.06.2018 11:00:00 19,4 11,7 5 3 16 9 SW 0,0
18.06.2018 10:00:00 17,3 11,1 5 3 13 7 SW 0,0
18.06.2018 09:00:00 15,3 11,3 2 1 8 4 S 0,0
18.06.2018 08:00:00 13,9 10,9 4 2 9 5 SSW -
18.06.2018 07:00:00 13,4 11,1 2 1 9 5 S 0,0
18.06.2018 06:00:00 13,4 11,1 4 2 8 4 W 0,0
18.06.2018 05:00:00 13,4 10,9 2 1 8 4 SW 0,0
18.06.2018 04:00:00 13,8 11,1 2 1 11 6 WSW 0,0
18.06.2018 03:00:00 13,9 11,2 0 0 4 2 N 0,0
18.06.2018 02:00:00 14,7 11,1 2 1 8 4 WNW -
18.06.2018 01:00:00 15,1 10,9 8 4 15 8 WSW 0,0
18.06.2018 00:00:00 15,8 11,0 2 1 15 8 WSW 0,0
17.06.2018 23:00:00 16,2 11,1 0 0 22 12 N 0,0
17.06.2018 22:00:00 17,0 10,6 4 2 15 8 SSW 0,0
17.06.2018 21:00:00 17,7 10,6 4 2 15 8 SW 0,0
17.06.2018 20:00:00 18,1 11,9 4 2 21 11 SSW -
17.06.2018 19:00:00 19,0 11,8 5 3 22 12 W 0,0
17.06.2018 18:00:00 21,5 10,0 8 4 24 13 SW 0,0
17.06.2018 17:00:00 23,9 10,6 9 5 28 15 SW 0,0
17.06.2018 16:00:00 23,9 11,2 8 4 22 12 S 0,0
17.06.2018 15:00:00 23,6 12,3 8 4 26 14 SSW 0,0
17.06.2018 14:00:00 23,2 12,2 9 5 26 14 SSW -
17.06.2018 13:00:00 22,5 8,9 5 3 18 10 SSW 0,0
17.06.2018 12:00:00 20,5 10,3 5 3 16 9 S 0,0
17.06.2018 11:00:00 19,3 11,8 4 2 16 9 WSW 0,0
17.06.2018 10:00:00 17,3 11,1 2 1 11 6 SE 0,0
17.06.2018 09:00:00 14,8 12,5 0 0 5 3 N 0,2
17.06.2018 08:00:00 10,6 10,3 0 0 8 4 N -
17.06.2018 07:00:00 9,9 9,4 4 2 8 4 NNW 0,0
17.06.2018 06:00:00 9,9 9,3 5 3 9 5 N 0,0
17.06.2018 05:00:00 10,9 10,0 0 0 4 2 N 0,0
17.06.2018 04:00:00 10,8 10,2 2 1 5 3 NNE 0,0
17.06.2018 03:00:00 10,4 9,6 2 1 4 2 NE 0,0
17.06.2018 02:00:00 11,5 10,2 0 0 5 3 N -
17.06.2018 01:00:00 13,1 11,2 4 2 5 3 E 0,0
17.06.2018 00:00:00 13,6 11,3 0 0 5 3 N 0,0
16.06.2018 23:00:00 14,3 10,7 0 0 4 2 N 0,0
16.06.2018 22:00:00 15,6 11,6 2 1 8 4 NNE 0,0
16.06.2018 21:00:00 18,6 9,6 4 2 18 10 S 0,0
16.06.2018 20:00:00 20,1 10,5 4 2 16 9 SW -
16.06.2018 19:00:00 20,5 11,1 4 2 18 10 SSW 0,0
16.06.2018 18:00:00 20,9 11,0 11 6 21 11 WSW 0,0
16.06.2018 17:00:00 19,8 10,5 4 2 22 12 W 0,0
16.06.2018 16:00:00 21,7 12,3 9 5 29 16 S 0,0
16.06.2018 15:00:00 24,5 10,4 8 4 21 11 SSW 0,0
16.06.2018 14:00:00 23,6 10,3 8 4 24 13 S -
16.06.2018 13:00:00 22,3 10,4 8 4 21 11 SSW 0,0
16.06.2018 12:00:00 21,2 10,1 5 3 22 12 S 0,0
16.06.2018 11:00:00 19,8 9,7 4 2 9 5 WSW 0,0
16.06.2018 10:00:00 16,1 9,1 0 0 8 4 N 0,0
16.06.2018 09:00:00 10,4 10,2 0 0 5 3 N 0,0
16.06.2018 08:00:00 8,1 8,0 0 0 5 3 N -
16.06.2018 07:00:00 7,3 7,0 0 0 8 4 N 0,0
16.06.2018 06:00:00 7,2 6,9 2 1 5 3 NNW 0,0
16.06.2018 05:00:00 7,6 7,2 0 0 5 3 N 0,0
16.06.2018 04:00:00 8,1 7,5 0 0 5 3 N 0,0
16.06.2018 03:00:00 8,6 7,8 0 0 4 2 N 0,0
16.06.2018 02:00:00 9,1 8,0 0 0 5 3 N -
16.06.2018 01:00:00 10,3 8,7 2 1 5 3 NE 0,0
16.06.2018 00:00:00 11,9 8,9 0 0 4 2 N 0,0
15.06.2018 23:00:00 14,4 9,4 0 0 2 1 N 0,0
15.06.2018 22:00:00 16,1 9,7 0 0 13 7 N 0,0
15.06.2018 21:00:00 17,9 6,7 4 2 18 10 S 0,0
15.06.2018 20:00:00 18,9 8,2 5 3 29 16 SSW -
15.06.2018 19:00:00 20,5 9,1 5 3 22 12 SW 0,0
15.06.2018 18:00:00 22,2 9,0 8 4 26 14 SSW 0,0
15.06.2018 17:00:00 23,2 9,2 8 4 26 14 SW 0,0
15.06.2018 16:00:00 23,2 9,6 8 4 22 12 SSW 0,0
15.06.2018 15:00:00 21,6 9,8 8 4 28 15 SSW 0,0
15.06.2018 14:00:00 21,9 10,4 8 4 26 14 SSW -
15.06.2018 13:00:00 20,1 9,0 8 4 22 12 SW 0,0
15.06.2018 12:00:00 18,9 8,5 8 4 16 9 SW 0,0
15.06.2018 11:00:00 18,3 9,4 4 2 13 7 SSW 0,0
15.06.2018 10:00:00 14,9 9,7 2 1 9 5 SSE 0,0
15.06.2018 09:00:00 12,0 8,7 0 0 5 3 N 0,0
15.06.2018 08:00:00 9,3 9,2 0 0 5 3 N -
15.06.2018 07:00:00 7,4 7,3 0 0 4 2 N 0,0
15.06.2018 06:00:00 7,1 6,8 0 0 5 3 N 0,0
15.06.2018 05:00:00 7,5 7,1 0 0 4 2 N 0,0
15.06.2018 04:00:00 8,0 7,6 2 1 5 3 E 0,0
15.06.2018 03:00:00 8,6 8,0 4 2 5 3 E 0,0
15.06.2018 02:00:00 9,2 8,3 0 0 4 2 N -
15.06.2018 01:00:00 10,1 8,7 0 0 4 2 N 0,0
15.06.2018 00:00:00 11,3 9,2 0 0 5 3 N 0,0
14.06.2018 23:00:00 12,8 8,7 0 0 5 3 N 0,0
14.06.2018 22:00:00 13,8 9,2 0 0 8 4 N 0,0
14.06.2018 21:00:00 16,2 8,2 5 3 18 10 W 0,0
14.06.2018 20:00:00 17,2 8,1 4 2 22 12 S -
14.06.2018 19:00:00 18,1 8,1 8 4 24 13 SW 0,0
14.06.2018 18:00:00 20,2 9,1 9 5 26 14 SW 0,0
14.06.2018 17:00:00 21,8 11,2 8 4 28 15 SW 0,0
14.06.2018 16:00:00 21,4 8,0 8 4 24 13 SW 0,0
14.06.2018 15:00:00 20,9 7,8 8 4 22 12 SW 0,0
14.06.2018 14:00:00 19,5 7,6 8 4 28 15 SSW -
14.06.2018 13:00:00 18,1 7,5 8 4 26 14 SW 0,0
14.06.2018 12:00:00 17,4 8,3 5 3 21 11 SSW 0,0
14.06.2018 11:00:00 16,2 8,4 8 4 16 9 WSW 0,0
14.06.2018 10:00:00 14,0 7,3 5 3 13 7 SW 0,0
14.06.2018 09:00:00 11,3 8,2 4 2 8 4 ESE 0,0

tt = Température de l'air
td = dewpoint
ff = Vitesse du vent
fx = gusts
dd = Direction du vent
rr = Quantités de précipitations

stations d'obs. à proximité